Time;durP1;ratioP1;P1;durP2;ratioP2;P2;SDS_P1;SDS_P2;PMS_P1;PMS_P2;Temp;Humidity;BMP_temperature;BMP_pressure;BME280_temperature;BME280_humidity;BME280_pressure;Samples;Min_cycle;Max_cycle;Signal;HPM_P1;HPM_P2
2021/06/29 00:01:07;;;;;;;2.80;1.40;;;25.50;96.70;;;;;;5004355;28;20491;-73
2021/06/29 00:03:36;;;;;;;2.30;1.55;;;25.60;96.70;;;;;;4998995;28;20129;-73
2021/06/29 00:06:04;;;;;;;6.28;1.80;;;25.60;96.70;;;;;;5002647;28;20049;-73
2021/06/29 00:08:33;;;;;;;3.35;1.65;;;25.60;96.70;;;;;;5009505;28;20497;-73
2021/06/29 00:11:23;;;;;;;4.43;1.60;;;25.50;96.70;;;;;;5007101;28;20050;-74
2021/06/29 00:13:52;;;;;;;2.55;1.73;;;25.40;96.70;;;;;;5020706;28;20483;-73
2021/06/29 00:16:20;;;;;;;4.32;1.38;;;25.40;96.70;;;;;;5005117;28;20495;-74
2021/06/29 00:18:49;;;;;;;4.63;1.50;;;25.40;96.70;;;;;;5008791;28;20038;-73
2021/06/29 00:21:17;;;;;;;3.22;1.40;;;25.50;96.70;;;;;;5005612;28;20288;-74
2021/06/29 00:23:45;;;;;;;4.65;1.40;;;25.40;96.70;;;;;;5000186;28;20082;-74
2021/06/29 00:26:14;;;;;;;2.60;1.48;;;25.30;96.70;;;;;;5020256;28;20037;-74
2021/06/29 00:28:44;;;;;;;2.13;1.42;;;25.20;96.70;;;;;;5000749;28;20499;-74
2021/06/29 00:31:12;;;;;;;2.60;1.67;;;25.30;96.70;;;;;;5003855;28;20065;-73
2021/06/29 00:33:40;;;;;;;2.08;1.45;;;25.30;96.70;;;;;;5009030;28;20049;-74
2021/06/29 00:36:14;;;;;;;3.20;1.50;;;25.40;96.70;;;;;;5002579;28;20057;-74
2021/06/29 00:38:43;;;;;;;5.22;1.40;;;25.30;96.70;;;;;;5001852;28;20104;-73
2021/06/29 00:41:12;;;;;;;4.45;1.60;;;25.10;96.70;;;;;;5006568;28;20508;-74
2021/06/29 00:43:46;;;;;;;2.53;1.45;;;25.20;96.70;;;;;;5005234;28;20049;-74
2021/06/29 00:46:15;;;;;;;2.15;1.50;;;25.30;96.70;;;;;;5004375;28;20050;-74
2021/06/29 00:48:44;;;;;;;3.75;1.40;;;25.20;96.60;;;;;;4999183;28;20082;-73
2021/06/29 00:51:13;;;;;;;1.67;1.15;;;25.20;96.60;;;;;;5002925;28;20104;-74
2021/06/29 00:53:42;;;;;;;2.15;1.30;;;25.20;96.60;;;;;;4996285;28;20425;-73
2021/06/29 00:56:19;;;;;;;2.65;1.17;;;25.20;96.20;;;;;;5000815;28;20045;-73
2021/06/29 00:58:49;;;;;;;2.92;1.40;;;25.10;96.30;;;;;;4996571;28;20136;-73
2021/06/29 01:01:17;;;;;;;6.38;1.73;;;25.10;96.30;;;;;;4997453;28;20447;-74
2021/06/29 01:03:45;;;;;;;2.45;1.20;;;25.00;96.50;;;;;;4996155;28;20049;-74
2021/06/29 01:06:15;;;;;;;4.07;1.35;;;25.00;96.50;;;;;;5013313;28;20061;-73
2021/06/29 01:08:43;;;;;;;4.03;1.40;;;25.20;96.20;;;;;;4995119;28;20240;-74
2021/06/29 01:11:12;;;;;;;2.90;1.35;;;25.30;95.70;;;;;;4998294;28;20046;-73
2021/06/29 01:13:43;;;;;;;3.22;1.30;;;25.30;96.20;;;;;;4998558;28;20060;-74
2021/06/29 01:16:13;;;;;;;3.10;1.60;;;25.10;96.70;;;;;;4996033;28;20131;-73
2021/06/29 01:18:43;;;;;;;2.55;1.40;;;24.90;96.70;;;;;;4999876;28;20060;-73
2021/06/29 01:21:15;;;;;;;3.83;1.52;;;24.80;96.70;;;;;;4997689;28;20042;-74
2021/06/29 01:23:49;;;;;;;3.05;1.55;;;24.70;96.70;;;;;;5012608;28;20562;-73
2021/06/29 01:26:23;;;;;;;4.78;1.67;;;24.60;96.70;;;;;;4994051;28;20607;-74
2021/06/29 01:29:01;;;;;;;2.85;1.40;;;24.60;96.70;;;;;;5001537;28;20096;-74
2021/06/29 01:31:31;;;;;;;3.30;1.13;;;24.60;96.70;;;;;;4995742;28;20065;-73
2021/06/29 01:33:59;;;;;;;3.08;1.52;;;24.60;96.70;;;;;;5002182;28;20037;-74
2021/06/29 01:36:35;;;;;;;1.98;1.27;;;24.70;96.70;;;;;;5013063;28;20045;-73
2021/06/29 01:39:04;;;;;;;3.03;1.73;;;24.70;96.70;;;;;;4998916;28;20381;-74
2021/06/29 01:41:33;;;;;;;3.10;1.30;;;24.60;96.70;;;;;;5013520;28;20052;-74
2021/06/29 01:44:14;;;;;;;3.50;1.40;;;24.60;96.70;;;;;;4996916;28;20578;-73
2021/06/29 01:46:45;;;;;;;2.45;1.50;;;24.60;96.70;;;;;;4997310;28;20230;-74
2021/06/29 01:49:13;;;;;;;3.47;1.30;;;24.60;96.70;;;;;;5001065;28;20087;-73
2021/06/29 01:51:45;;;;;;;2.15;1.42;;;24.70;96.70;;;;;;4999005;28;20085;-73
2021/06/29 01:54:14;;;;;;;5.70;1.48;;;24.60;96.70;;;;;;5005537;28;20069;-73
2021/06/29 01:56:43;;;;;;;2.75;1.45;;;24.50;96.70;;;;;;5001256;28;20072;-73
2021/06/29 01:59:14;;;;;;;2.08;1.20;;;24.30;96.70;;;;;;4998825;28;20045;-74
2021/06/29 02:01:43;;;;;;;1.42;1.00;;;24.40;96.70;;;;;;5005167;28;20052;-73
2021/06/29 02:04:11;;;;;;;2.33;1.30;;;24.30;96.70;;;;;;5014122;28;20045;-74
2021/06/29 02:06:40;;;;;;;3.22;1.55;;;24.30;96.70;;;;;;4999743;28;20104;-74
2021/06/29 02:09:11;;;;;;;2.30;1.17;;;24.30;96.70;;;;;;4998561;28;20653;-73
2021/06/29 02:11:40;;;;;;;3.55;1.10;;;24.30;96.70;;;;;;4998347;28;20396;-74
2021/06/29 02:14:08;;;;;;;2.42;1.55;;;24.20;96.70;;;;;;4996227;28;20080;-74
2021/06/29 02:16:36;;;;;;;1.27;1.17;;;24.20;96.70;;;;;;4982715;28;20045;-74
2021/06/29 02:19:09;;;;;;;3.28;1.90;;;24.20;96.70;;;;;;4997379;28;20084;-74
2021/06/29 02:21:37;;;;;;;4.38;1.92;;;24.20;96.70;;;;;;5001881;28;20118;-74
2021/06/29 02:24:06;;;;;;;4.15;1.77;;;24.10;96.70;;;;;;4998361;28;20046;-74
2021/06/29 02:26:36;;;;;;;3.90;2.03;;;24.00;96.70;;;;;;5000947;28;20428;-74
2021/06/29 02:29:04;;;;;;;3.25;1.48;;;24.00;96.70;;;;;;4994747;28;20245;-74
2021/06/29 02:31:32;;;;;;;2.22;1.23;;;24.00;96.70;;;;;;5000447;28;20116;-74
2021/06/29 02:34:01;;;;;;;2.10;1.30;;;24.00;96.70;;;;;;5009455;28;20037;-74
2021/06/29 02:36:29;;;;;;;2.97;1.50;;;24.10;96.70;;;;;;4996624;28;20361;-74
2021/06/29 02:38:57;;;;;;;1.58;1.27;;;24.00;96.70;;;;;;4997847;28;20085;-74
2021/06/29 02:41:25;;;;;;;2.88;1.50;;;24.00;96.70;;;;;;4999985;28;20150;-74
2021/06/29 02:43:55;;;;;;;1.73;1.50;;;24.10;96.70;;;;;;4999925;28;20069;-74
2021/06/29 02:46:24;;;;;;;3.10;1.40;;;24.00;96.70;;;;;;5002284;28;20434;-74
2021/06/29 02:48:55;;;;;;;4.82;1.45;;;24.00;96.70;;;;;;5000858;28;20082;-74
2021/06/29 02:51:24;;;;;;;1.63;1.40;;;24.00;96.70;;;;;;4998188;28;20038;-74
2021/06/29 02:53:52;;;;;;;4.95;1.55;;;23.90;96.70;;;;;;4995878;28;20088;-74
2021/06/29 02:59:09;;;;;;;;;;;23.80;96.70;;;;;;4993920;28;20088;-74
2021/06/29 03:01:38;;;;;;;4.75;1.40;;;23.80;96.70;;;;;;4997547;28;20421;-74
2021/06/29 03:04:06;;;;;;;2.00;1.27;;;23.70;96.70;;;;;;4997649;28;20144;-74
2021/06/29 03:06:35;;;;;;;1.98;1.20;;;23.60;96.70;;;;;;4998967;28;20479;-74
2021/06/29 03:09:04;;;;;;;2.35;1.45;;;23.60;96.70;;;;;;4998364;28;20065;-74
2021/06/29 03:11:33;;;;;;;2.75;1.38;;;23.70;96.70;;;;;;5012516;28;20046;-74
2021/06/29 03:14:01;;;;;;;1.77;1.27;;;23.70;96.70;;;;;;4999117;28;20049;-74
2021/06/29 03:16:31;;;;;;;4.55;1.50;;;23.60;96.70;;;;;;4998605;28;20150;-74
2021/06/29 03:18:59;;;;;;;2.05;1.13;;;23.60;96.70;;;;;;5001627;28;20575;-74
2021/06/29 03:21:28;;;;;;;3.55;1.50;;;23.60;96.70;;;;;;5014346;28;20042;-74
2021/06/29 03:23:56;;;;;;;4.53;1.23;;;23.50;96.70;;;;;;5012529;28;20046;-73
2021/06/29 03:26:24;;;;;;;2.65;1.23;;;23.40;96.70;;;;;;5012462;28;20499;-73
2021/06/29 03:28:52;;;;;;;4.18;1.23;;;23.20;96.70;;;;;;5001003;28;20047;-73
2021/06/29 03:31:21;;;;;;;3.80;1.48;;;23.10;96.70;;;;;;5014945;28;20089;-74
2021/06/29 03:33:50;;;;;;;2.85;1.10;;;23.20;96.70;;;;;;5006026;28;20045;-74
2021/06/29 03:36:19;;;;;;;5.50;1.40;;;23.20;96.70;;;;;;5006821;28;20045;-73
2021/06/29 03:38:47;;;;;;;2.60;1.42;;;23.20;96.70;;;;;;5001075;28;20052;-74
2021/06/29 03:41:15;;;;;;;3.85;1.33;;;23.20;96.70;;;;;;5007021;28;20129;-74
2021/06/29 03:43:43;;;;;;;2.05;1.33;;;23.20;96.70;;;;;;5003814;28;20443;-74
2021/06/29 03:46:12;;;;;;;1.50;1.23;;;23.10;96.70;;;;;;4999949;28;20038;-74
2021/06/29 03:48:40;;;;;;;3.50;1.48;;;23.20;96.70;;;;;;5002446;28;20053;-73
2021/06/29 03:51:13;;;;;;;3.88;1.40;;;23.20;96.70;;;;;;5002936;28;20037;-74
2021/06/29 03:53:41;;;;;;;2.88;1.35;;;23.40;96.70;;;;;;4999102;28;20316;-75
2021/06/29 03:56:23;;;;;;;1.70;1.30;;;23.40;96.70;;;;;;5019425;28;20128;-75
2021/06/29 03:58:53;;;;;;;3.13;1.85;;;23.40;96.70;;;;;;4985752;28;20042;-75
2021/06/29 04:01:22;;;;;;;4.45;1.52;;;23.40;96.70;;;;;;5000073;28;20534;-74
2021/06/29 04:03:54;;;;;;;4.95;1.50;;;23.40;96.70;;;;;;4997817;28;20404;-74
2021/06/29 04:06:26;;;;;;;4.20;1.70;;;23.40;96.70;;;;;;5000394;28;20400;-75
2021/06/29 04:08:55;;;;;;;2.15;1.30;;;23.40;96.70;;;;;;4998886;28;20046;-75
2021/06/29 04:11:25;;;;;;;5.30;1.40;;;23.40;96.70;;;;;;4997556;28;20060;-74
2021/06/29 04:13:55;;;;;;;2.30;1.38;;;23.50;96.70;;;;;;4998333;28;20042;-74
2021/06/29 04:16:23;;;;;;;2.67;1.33;;;23.50;96.70;;;;;;5002269;28;20516;-75
2021/06/29 04:18:52;;;;;;;6.22;1.67;;;23.60;96.70;;;;;;5000072;28;20085;-74
2021/06/29 04:21:25;;;;;;;3.53;1.60;;;23.60;96.70;;;;;;5001319;28;20049;-75
2021/06/29 04:23:53;;;;;;;2.30;1.38;;;23.50;96.70;;;;;;4999348;28;20127;-74
2021/06/29 04:26:21;;;;;;;3.00;1.33;;;23.60;96.70;;;;;;5007258;28;20069;-75
2021/06/29 04:28:49;;;;;;;4.68;1.67;;;23.70;96.70;;;;;;5007734;28;20055;-75
2021/06/29 04:31:18;;;;;;;2.92;1.13;;;23.70;96.70;;;;;;5008106;28;20373;-75
2021/06/29 04:33:46;;;;;;;6.15;1.60;;;23.80;96.70;;;;;;5009748;28;20069;-75
2021/06/29 04:36:15;;;;;;;2.40;1.13;;;23.60;96.70;;;;;;5010465;28;20037;-75
2021/06/29 04:38:44;;;;;;;4.13;1.77;;;23.60;96.70;;;;;;5000597;28;20041;-75
2021/06/29 04:41:12;;;;;;;9.60;2.20;;;23.40;96.70;;;;;;5003267;28;20124;-75
2021/06/29 04:43:43;;;;;;;3.17;1.95;;;23.20;96.70;;;;;;5004226;28;20512;-75
2021/06/29 04:46:11;;;;;;;5.78;1.70;;;23.20;96.70;;;;;;5001573;28;20173;-75
2021/06/29 04:48:41;;;;;;;6.63;1.90;;;23.10;96.70;;;;;;4355111;28;18802571;-75
2021/06/29 04:51:09;;;;;;;5.13;1.63;;;23.10;96.70;;;;;;5009275;28;20296;-75
2021/06/29 04:53:37;;;;;;;5.93;1.52;;;23.10;96.70;;;;;;5004541;28;20511;-74
2021/06/29 04:56:16;;;;;;;3.63;1.40;;;22.90;96.70;;;;;;5006337;28;20540;-74
2021/06/29 04:58:46;;;;;;;6.15;1.88;;;23.00;96.70;;;;;;5003307;28;20092;-74
2021/06/29 05:01:14;;;;;;;3.85;1.42;;;22.90;96.70;;;;;;5022485;28;20124;-74
2021/06/29 05:03:42;;;;;;;6.22;1.80;;;23.00;96.70;;;;;;5003785;28;20054;-74
2021/06/29 05:06:11;;;;;;;3.63;1.50;;;22.90;96.70;;;;;;4990572;28;20054;-74
2021/06/29 05:08:39;;;;;;;2.47;1.35;;;23.00;96.70;;;;;;5002695;28;20092;-74
2021/06/29 05:11:09;;;;;;;4.35;1.65;;;23.00;96.70;;;;;;5008213;28;20562;-75
2021/06/29 05:13:42;;;;;;;5.15;1.48;;;23.00;96.70;;;;;;5019432;28;20045;-74
2021/06/29 05:16:11;;;;;;;4.35;1.77;;;23.10;96.70;;;;;;5007315;28;20042;-75
2021/06/29 05:18:39;;;;;;;5.72;1.83;;;23.10;96.70;;;;;;5006133;28;20053;-74
2021/06/29 05:21:08;;;;;;;5.25;2.25;;;23.20;96.70;;;;;;5019617;28;20078;-75
2021/06/29 05:23:36;;;;;;;4.68;2.63;;;23.30;96.70;;;;;;5018712;28;20653;-74
2021/06/29 05:26:04;;;;;;;6.55;2.10;;;23.30;96.70;;;;;;4992293;28;20499;-75
2021/06/29 05:28:34;;;;;;;3.75;1.63;;;23.40;96.70;;;;;;5006658;28;20116;-75
2021/06/29 05:31:03;;;;;;;5.93;2.08;;;23.40;96.70;;;;;;5007234;28;20195;-75
2021/06/29 05:33:31;;;;;;;3.15;1.80;;;23.40;96.70;;;;;;5006066;28;20120;-75
2021/06/29 05:35:59;;;;;;;5.38;2.50;;;23.40;96.70;;;;;;5006132;28;20132;-74
2021/06/29 05:38:27;;;;;;;5.72;2.00;;;23.50;96.70;;;;;;5008033;28;20053;-75
2021/06/29 05:40:55;;;;;;;4.93;2.63;;;23.50;96.70;;;;;;5004101;28;20161;-75
2021/06/29 05:43:23;;;;;;;6.50;2.60;;;23.50;96.70;;;;;;5009266;28;20665;-75
2021/06/29 05:45:52;;;;;;;6.82;3.10;;;23.50;96.70;;;;;;5003878;28;20042;-75
2021/06/29 05:48:21;;;;;;;5.82;3.00;;;23.50;96.70;;;;;;5018604;28;20049;-74
2021/06/29 05:50:49;;;;;;;5.70;2.97;;;23.50;96.70;;;;;;5004921;28;20404;-75
2021/06/29 05:53:17;;;;;;;5.47;3.20;;;23.60;96.70;;;;;;5003024;28;20185;-75
2021/06/29 05:55:45;;;;;;;8.20;3.40;;;23.70;96.70;;;;;;5004373;28;20855;-75
2021/06/29 05:58:15;;;;;;;4.53;2.45;;;23.90;96.70;;;;;;5003324;28;20579;-77
2021/06/29 06:00:44;;;;;;;6.05;2.90;;;23.90;96.70;;;;;;5004796;28;20262;-76
2021/06/29 06:03:14;;;;;;;7.43;3.70;;;23.90;96.70;;;;;;5006506;28;20034;-76
2021/06/29 06:05:42;;;;;;;5.50;3.60;;;24.00;96.70;;;;;;5007653;28;20033;-77
2021/06/29 06:08:10;;;;;;;6.60;3.70;;;24.00;96.70;;;;;;5010514;28;20068;-77
2021/06/29 06:10:39;;;;;;;12.10;5.00;;;24.30;96.70;;;;;;5006173;28;20041;-74
2021/06/29 06:13:07;;;;;;;6.75;4.43;;;24.40;96.70;;;;;;5008300;28;20096;-74
2021/06/29 06:15:40;;;;;;;7.90;4.63;;;24.60;96.70;;;;;;5002050;28;20046;-74
2021/06/29 06:18:08;;;;;;;10.05;3.92;;;24.60;96.70;;;;;;4990271;28;20041;-74
2021/06/29 06:20:38;;;;;;;8.57;4.07;;;24.80;96.70;;;;;;5003244;28;20120;-74
2021/06/29 06:23:06;;;;;;;8.05;3.65;;;24.70;96.70;;;;;;5004107;28;20045;-74
2021/06/29 06:25:35;;;;;;;8.77;3.85;;;24.70;96.70;;;;;;5026412;28;20388;-75
2021/06/29 06:28:03;;;;;;;7.65;3.40;;;24.80;96.70;;;;;;5005929;28;20042;-75
2021/06/29 06:30:31;;;;;;;9.65;4.15;;;24.90;96.70;;;;;;5003394;28;20420;-75
2021/06/29 06:33:00;;;;;;;10.13;5.57;;;25.10;96.70;;;;;;5009672;28;20443;-75
2021/06/29 06:35:28;;;;;;;12.68;6.18;;;25.20;96.70;;;;;;5002726;28;20041;-75
2021/06/29 06:37:57;;;;;;;10.85;5.15;;;25.20;96.70;;;;;;5008809;28;20457;-75
2021/06/29 06:40:25;;;;;;;15.93;5.80;;;25.30;96.70;;;;;;5004211;28;20033;-75
2021/06/29 06:42:53;;;;;;;8.38;4.68;;;25.30;96.70;;;;;;5019464;28;20865;-74
2021/06/29 06:45:24;;;;;;;10.30;3.80;;;25.50;96.70;;;;;;5002209;28;20805;-75
2021/06/29 06:47:53;;;;;;;10.00;4.13;;;25.50;96.70;;;;;;5003954;28;20539;-75
2021/06/29 06:50:22;;;;;;;11.30;4.00;;;25.60;96.70;;;;;;5005401;28;20392;-75
2021/06/29 06:52:51;;;;;;;9.88;4.13;;;25.60;96.70;;;;;;5002081;28;20046;-75
2021/06/29 06:55:25;;;;;;;6.20;3.70;;;25.40;96.70;;;;;;5007482;28;20044;-75
2021/06/29 06:57:53;;;;;;;10.93;4.10;;;25.30;96.70;;;;;;5001590;28;20046;-75
2021/06/29 07:00:23;;;;;;;8.63;4.68;;;25.50;96.70;;;;;;5001421;28;20093;-75
2021/06/29 07:02:51;;;;;;;11.48;4.43;;;25.60;96.70;;;;;;5005406;28;20042;-75
2021/06/29 07:05:19;;;;;;;9.63;4.03;;;25.40;96.70;;;;;;5012216;28;20050;-74
2021/06/29 07:07:47;;;;;;;7.80;4.05;;;25.20;96.70;;;;;;5005561;28;20478;-75
2021/06/29 07:10:16;;;;;;;9.30;4.00;;;25.10;96.70;;;;;;5002873;28;20042;-75
2021/06/29 07:12:50;;;;;;;10.65;4.03;;;25.10;96.70;;;;;;5000841;28;20043;-75
2021/06/29 07:15:18;;;;;;;8.27;3.33;;;25.30;96.70;;;;;;5007295;28;20049;-75
2021/06/29 07:17:46;;;;;;;8.40;3.03;;;25.40;96.70;;;;;;5004241;28;20064;-75
2021/06/29 07:20:14;;;;;;;9.00;3.10;;;25.50;96.70;;;;;;5008193;28;20123;-75
2021/06/29 07:22:42;;;;;;;4.30;3.05;;;25.50;96.70;;;;;;5006065;28;20046;-75
2021/06/29 07:25:11;;;;;;;5.38;2.85;;;25.60;96.70;;;;;;5022237;28;20290;-75
2021/06/29 07:27:39;;;;;;;7.00;3.58;;;25.70;96.70;;;;;;5001253;28;20046;-75
2021/06/29 07:30:10;;;;;;;4.28;3.00;;;25.80;96.70;;;;;;5020009;28;20050;-75
2021/06/29 07:32:42;;;;;;;5.47;2.70;;;25.90;96.70;;;;;;5005091;28;20491;-75
2021/06/29 07:35:10;;;;;;;6.68;3.08;;;26.00;96.70;;;;;;5005057;28;20046;-75
2021/06/29 07:37:39;;;;;;;8.80;3.28;;;26.10;96.70;;;;;;5017055;28;20060;-75
2021/06/29 07:40:08;;;;;;;6.28;2.80;;;26.10;96.70;;;;;;5005532;28;20117;-75
2021/06/29 07:42:36;;;;;;;8.02;2.97;;;26.20;96.70;;;;;;5003687;28;20038;-75
2021/06/29 07:45:06;;;;;;;5.78;3.33;;;26.30;96.70;;;;;;5002117;28;20077;-75
2021/06/29 07:47:36;;;;;;;5.63;2.80;;;26.40;96.70;;;;;;4999563;28;20099;-74
2021/06/29 07:50:06;;;;;;;8.23;2.92;;;26.40;96.70;;;;;;5009872;28;20069;-75
2021/06/29 07:52:37;;;;;;;5.35;2.80;;;26.40;96.70;;;;;;5004491;28;20513;-75
2021/06/29 07:55:06;;;;;;;9.95;3.10;;;26.40;96.70;;;;;;5005743;28;20075;-76
2021/06/29 07:57:34;;;;;;;6.70;2.83;;;26.50;96.70;;;;;;5004612;28;20041;-75
2021/06/29 08:00:04;;;;;;;6.95;2.78;;;26.60;96.70;;;;;;5001051;28;20408;-75
2021/06/29 08:02:39;;;;;;;6.03;2.63;;;26.80;96.70;;;;;;5002508;28;20133;-73
2021/06/29 08:05:08;;;;;;;5.60;3.03;;;26.90;96.70;;;;;;5003295;28;20373;-74
2021/06/29 08:07:36;;;;;;;3.75;2.75;;;26.90;96.70;;;;;;5007287;28;20029;-74
2021/06/29 08:10:07;;;;;;;7.13;2.80;;;27.00;96.70;;;;;;5008518;28;20041;-74
2021/06/29 08:12:35;;;;;;;5.88;2.17;;;27.00;96.70;;;;;;5010343;28;20112;-74
2021/06/29 08:15:05;;;;;;;5.03;2.80;;;27.00;96.70;;;;;;5002902;28;20053;-73
2021/06/29 08:17:41;;;;;;;5.20;2.70;;;27.10;96.70;;;;;;5006882;28;20111;-74
2021/06/29 08:20:11;;;;;;;5.75;2.35;;;27.00;96.70;;;;;;5007646;28;20038;-74
2021/06/29 08:22:40;;;;;;;5.20;2.20;;;27.00;96.70;;;;;;5007867;28;20052;-74
2021/06/29 08:25:09;;;;;;;5.40;2.33;;;27.10;96.70;;;;;;5004866;28;20112;-74
2021/06/29 08:27:38;;;;;;;5.35;2.58;;;27.30;96.70;;;;;;5006422;28;20050;-74
2021/06/29 08:30:10;;;;;;;10.18;3.00;;;27.40;96.70;;;;;;4996813;28;20116;-75
2021/06/29 08:32:40;;;;;;;5.10;2.20;;;27.40;96.70;;;;;;5021578;28;20163;-75
2021/06/29 08:35:11;;;;;;;5.03;2.30;;;27.40;96.70;;;;;;5004028;28;20443;-74
2021/06/29 08:37:42;;;;;;;5.10;2.47;;;27.50;96.70;;;;;;5008399;28;20056;-73
2021/06/29 08:40:12;;;;;;;7.03;2.65;;;27.50;96.30;;;;;;5007453;28;20057;-75
2021/06/29 08:42:41;;;;;;;4.72;2.35;;;27.60;96.60;;;;;;5007535;28;20053;-75
2021/06/29 08:45:11;;;;;;;5.60;2.60;;;27.60;96.10;;;;;;5008483;28;20076;-74
2021/06/29 08:47:42;;;;;;;5.32;2.33;;;27.70;95.90;;;;;;5006679;28;20142;-75
2021/06/29 08:50:13;;;;;;;6.03;2.15;;;27.80;95.10;;;;;;5007737;28;20461;-75
2021/06/29 08:52:41;;;;;;;6.75;2.33;;;27.90;94.70;;;;;;5004009;28;20088;-75
2021/06/29 08:55:12;;;;;;;10.00;3.15;;;28.00;94.90;;;;;;5006702;28;20550;-74
2021/06/29 08:57:41;;;;;;;8.88;3.30;;;28.00;94.50;;;;;;5010636;28;20053;-75
2021/06/29 09:00:12;;;;;;;7.57;2.70;;;27.90;94.50;;;;;;5020103;28;20132;-75
2021/06/29 09:02:42;;;;;;;5.82;2.58;;;27.90;93.60;;;;;;5008922;28;20084;-74
2021/06/29 09:05:21;;;;;;;4.53;2.63;;;27.90;92.50;;;;;;5005169;28;20046;-75
2021/06/29 09:08:01;;;;;;;5.18;2.25;;;28.00;90.20;;;;;;5003451;28;20381;-75
2021/06/29 09:10:30;;;;;;;5.05;2.17;;;27.90;88.80;;;;;;5026753;28;20052;-74
2021/06/29 09:12:59;;;;;;;5.70;2.67;;;28.00;89.40;;;;;;4986719;28;20065;-75
2021/06/29 09:15:34;;;;;;;7.25;2.58;;;28.10;89.70;;;;;;5006389;28;20057;-75
2021/06/29 09:18:25;;;;;;;5.07;2.10;;;28.10;88.90;;;;;;5006090;28;20064;-75
2021/06/29 09:20:56;;;;;;;4.13;2.42;;;28.30;89.20;;;;;;4983185;28;20060;-75
2021/06/29 09:23:27;;;;;;;4.03;2.60;;;28.40;88.80;;;;;;5006860;28;20038;-75
2021/06/29 09:25:59;;;;;;;5.20;2.47;;;28.40;89.50;;;;;;5004529;28;20112;-75
2021/06/29 09:28:32;;;;;;;5.80;2.30;;;28.50;89.40;;;;;;5003238;28;20108;-75
2021/06/29 09:31:03;;;;;;;3.92;2.22;;;28.50;88.20;;;;;;5008016;28;20045;-76
2021/06/29 09:33:35;;;;;;;5.35;2.15;;;28.60;87.20;;;;;;5020698;28;20064;-74
2021/06/29 09:36:07;;;;;;;4.43;2.08;;;28.60;88.10;;;;;;5004302;28;20056;-74
2021/06/29 09:38:43;;;;;;;4.93;2.10;;;28.70;88.10;;;;;;5005062;28;20049;-75
2021/06/29 09:41:16;;;;;;;5.82;2.53;;;28.70;87.60;;;;;;5003772;28;20144;-75
2021/06/29 09:43:46;;;;;;;3.08;2.00;;;28.80;86.40;;;;;;5001891;28;20046;-75
2021/06/29 09:46:16;;;;;;;5.00;1.60;;;28.80;85.60;;;;;;5005809;28;20127;-75
2021/06/29 09:48:48;;;;;;;4.55;1.90;;;28.80;84.50;;;;;;5003566;28;20054;-75
2021/06/29 09:51:37;;;;;;;6.30;2.30;;;28.90;84.90;;;;;;5003968;28;20037;-74
2021/06/29 09:54:07;;;;;;;3.95;2.13;;;28.90;85.80;;;;;;5005903;28;20073;-74
2021/06/29 09:56:39;;;;;;;4.10;1.58;;;29.10;85.00;;;;;;5005084;28;20046;-75
2021/06/29 09:59:13;;;;;;;5.00;1.77;;;29.10;82.70;;;;;;5002378;28;21154;-75
2021/06/29 10:01:42;;;;;;;2.97;1.50;;;29.10;83.50;;;;;;5009362;28;20412;-75
2021/06/29 10:04:12;;;;;;;3.10;1.67;;;29.40;82.10;;;;;;5006470;28;20107;-75
2021/06/29 10:06:47;;;;;;;3.15;1.48;;;29.20;80.80;;;;;;5001606;28;20080;-75
2021/06/29 10:09:16;;;;;;;8.13;1.90;;;29.20;80.00;;;;;;5017879;28;20140;-75
2021/06/29 10:11:51;;;;;;;3.35;1.42;;;29.20;81.50;;;;;;5002724;28;20104;-75
2021/06/29 10:14:24;;;;;;;3.45;1.55;;;29.30;81.80;;;;;;5006604;28;20065;-75
2021/06/29 10:16:55;;;;;;;2.78;1.60;;;29.40;80.60;;;;;;5003240;28;20042;-74
2021/06/29 10:22:13;;;;;;;5.00;2.20;;;29.70;80.90;;;;;;5004165;28;20046;-75
2021/06/29 10:24:43;;;;;;;4.60;2.00;;;29.70;81.70;;;;;;5004963;28;20490;-75
2021/06/29 10:27:12;;;;;;;2.35;1.70;;;29.80;81.50;;;;;;5006059;28;20483;-75
2021/06/29 10:29:41;;;;;;;3.15;1.95;;;29.90;81.90;;;;;;5004768;28;20153;-75
2021/06/29 10:32:13;;;;;;;4.60;2.20;;;29.80;83.40;;;;;;5015441;28;20042;-75
2021/06/29 10:34:44;;;;;;;5.32;2.35;;;30.00;84.10;;;;;;5022740;28;20494;-75
2021/06/29 10:37:12;;;;;;;7.90;2.33;;;30.00;83.80;;;;;;5004210;28;20562;-75
2021/06/29 10:39:43;;;;;;;2.63;1.60;;;30.10;83.30;;;;;;5001981;28;20045;-77
2021/06/29 10:42:18;;;;;;;5.85;2.15;;;30.20;82.30;;;;;;5008006;28;20132;-77
2021/06/29 10:44:48;;;;;;;3.40;1.77;;;30.20;82.80;;;;;;4999103;28;20128;-76
2021/06/29 10:47:21;;;;;;;7.53;2.45;;;30.20;82.50;;;;;;5002205;28;20471;-77
2021/06/29 10:49:53;;;;;;;4.47;1.90;;;30.30;82.20;;;;;;5003716;28;20048;-78
2021/06/29 10:52:39;;;;;;;5.30;1.80;;;30.20;82.00;;;;;;5004299;28;20076;-77
2021/06/29 10:55:22;;;;;;;4.15;1.85;;;30.20;81.80;;;;;;5001073;28;20692;-78
2021/06/29 10:57:54;;;;;;;6.22;1.90;;;30.30;81.70;;;;;;5015049;28;20048;-78
2021/06/29 11:00:26;;;;;;;2.85;1.42;;;30.40;81.60;;;;;;5006481;28;20041;-77
2021/06/29 11:03:07;;;;;;;3.45;2.00;;;30.50;81.80;;;;;;5000894;28;20112;-77
2021/06/29 11:05:39;;;;;;;2.53;1.50;;;30.60;81.90;;;;;;5004161;28;20136;-77
2021/06/29 11:08:13;;;;;;;3.10;1.83;;;30.80;81.40;;;;;;5002606;28;20049;-77
2021/06/29 11:10:44;;;;;;;6.65;1.80;;;31.00;81.10;;;;;;5004704;28;20430;-79
2021/06/29 11:13:14;;;;;;;3.80;1.88;;;31.20;81.10;;;;;;4983673;28;20042;-79
2021/06/29 11:15:46;;;;;;;4.70;1.90;;;31.10;82.50;;;;;;4987505;28;20053;-79
2021/06/29 11:18:15;;;;;;;5.22;2.35;;;31.10;82.70;;;;;;5016669;28;20069;-76
2021/06/29 11:20:47;;;;;;;5.70;1.80;;;31.20;83.50;;;;;;5008336;28;20294;-76
2021/06/29 11:23:18;;;;;;;4.88;2.28;;;31.10;83.50;;;;;;5007810;28;20487;-75
2021/06/29 11:25:55;;;;;;;4.75;1.55;;;30.80;84.60;;;;;;5004978;28;20092;-76
2021/06/29 11:28:45;;;;;;;3.05;1.85;;;30.60;85.00;;;;;;5000194;28;20456;-73
2021/06/29 11:31:26;;;;;;;4.95;1.95;;;30.80;84.90;;;;;;5001366;28;20096;-72
2021/06/29 11:33:56;;;;;;;5.32;1.92;;;31.00;84.50;;;;;;5000809;28;20064;-74
2021/06/29 11:36:47;;;;;;;5.68;1.83;;;31.10;84.70;;;;;;5002469;28;20050;-74
2021/06/29 11:39:25;;;;;;;3.58;1.92;;;30.90;84.70;;;;;;4985100;28;20399;-73
2021/06/29 11:41:54;;;;;;;6.18;1.83;;;31.10;84.30;;;;;;5002333;28;20092;-73
2021/06/29 11:44:39;;;;;;;5.05;1.80;;;31.20;83.90;;;;;;5004943;28;20586;-73
2021/06/29 11:47:13;;;;;;;5.20;1.60;;;31.10;84.20;;;;;;5002922;28;20046;-73
2021/06/29 11:49:48;;;;;;;3.05;1.63;;;31.40;84.00;;;;;;5009355;28;20555;-74
2021/06/29 11:52:30;;;;;;;7.68;1.83;;;31.50;84.20;;;;;;5020510;28;20057;-73
2021/06/29 11:55:02;;;;;;;8.80;1.95;;;31.70;83.80;;;;;;5023720;28;20045;-73
2021/06/29 11:57:35;;;;;;;2.42;1.48;;;31.70;82.70;;;;;;5004096;28;20037;-73
2021/06/29 12:00:20;;;;;;;4.70;2.08;;;31.50;83.50;;;;;;5009912;28;20380;-73
2021/06/29 12:02:50;;;;;;;3.85;1.60;;;31.40;83.40;;;;;;5002579;28;20048;-73
2021/06/29 12:05:20;;;;;;;4.10;1.67;;;31.60;83.80;;;;;;5005918;28;20048;-73
2021/06/29 12:07:52;;;;;;;4.85;2.20;;;31.70;84.10;;;;;;5010478;28;20049;-73
2021/06/29 12:10:22;;;;;;;4.88;1.88;;;31.50;83.30;;;;;;5004245;28;20133;-73
2021/06/29 12:12:52;;;;;;;4.80;1.92;;;31.50;83.20;;;;;;5007210;28;20191;-73
2021/06/29 12:15:24;;;;;;;4.50;1.77;;;31.70;82.90;;;;;;5008197;28;20037;-73
2021/06/29 12:17:57;;;;;;;6.15;2.42;;;31.90;83.20;;;;;;5007271;28;20132;-73
2021/06/29 12:20:28;;;;;;;5.07;1.95;;;31.90;82.10;;;;;;5006991;28;20037;-73
2021/06/29 12:22:59;;;;;;;3.25;1.80;;;31.50;83.10;;;;;;5007211;28;20046;-73
2021/06/29 12:25:30;;;;;;;2.72;1.67;;;31.30;84.00;;;;;;5009921;28;20088;-73
2021/06/29 12:28:03;;;;;;;5.53;2.00;;;31.50;83.40;;;;;;5010992;28;20093;-74
2021/06/29 12:30:41;;;;;;;6.05;2.22;;;31.90;83.60;;;;;;5008323;28;20044;-73
2021/06/29 12:33:22;;;;;;;5.18;1.88;;;32.10;83.00;;;;;;5013300;28;20049;-73
2021/06/29 12:35:52;;;;;;;6.35;1.75;;;31.80;83.40;;;;;;5005466;28;20041;-74
2021/06/29 12:38:24;;;;;;;4.05;1.92;;;31.70;84.10;;;;;;5002437;28;20053;-74
2021/06/29 12:40:54;;;;;;;4.03;1.75;;;31.70;84.20;;;;;;4992509;28;20053;-74
2021/06/29 12:43:29;;;;;;;5.72;1.80;;;31.90;84.10;;;;;;5008128;28;20042;-74
2021/06/29 12:46:12;;;;;;;4.23;1.90;;;32.20;83.40;;;;;;5003381;28;20045;-74
2021/06/29 12:48:53;;;;;;;5.35;1.92;;;32.30;83.30;;;;;;5008291;28;20116;-74
2021/06/29 12:51:22;;;;;;;4.00;2.00;;;32.40;83.00;;;;;;5005263;28;20510;-74
2021/06/29 12:53:57;;;;;;;2.55;1.77;;;32.40;83.60;;;;;;5003724;28;20132;-74
2021/06/29 12:56:31;;;;;;;7.40;1.83;;;32.30;83.60;;;;;;5007857;28;20045;-74
2021/06/29 12:59:00;;;;;;;4.28;1.80;;;32.20;83.40;;;;;;5004875;28;20042;-74
2021/06/29 13:01:29;;;;;;;4.70;1.92;;;32.30;83.50;;;;;;5006326;28;20203;-75
2021/06/29 13:04:00;;;;;;;4.63;1.88;;;32.40;83.60;;;;;;4988060;28;20056;-74
2021/06/29 13:06:28;;;;;;;3.65;1.77;;;32.40;83.10;;;;;;5023357;28;20214;-75
2021/06/29 13:09:07;;;;;;;3.83;1.77;;;32.60;82.80;;;;;;5007682;28;20042;-74